Terminal Aerodrome Forecast
Issued by NWS

Current Version | Previous Version | Text Only | Print | Product List | Glossary On
Versions: 1 2 3 4 5 6 7 8 9 10 11 12 13 14 15 16 17 18 19
485
FTUS46 KMFR 271613 AAA
TAFOTH
TAF AMD
KOTH 271613Z 2716/2812 16006KT P6SM VCSH SCT025 BKN035 OVC050
      TEMPO 2716/2719 -SHRA BKN025 OVC035
     FM271900 27010G16KT P6SM VCSH SCT025 BKN035 BKN060
      TEMPO 2719/2721 -SHRA BKN025 OVC035
     FM280300 35005KT P6SM BKN025 BKN040
     FM280900 12004KT P6SM SCT025=

USA.gov is the U.S. government's official web portal to all federal, state and local government web resources and services.